world map with MLX marked

MLX - Airport

This information may not be accurate or current and is not valid for navigation or flight planning. No warranty of fitness for any purpose is made or implied.

flag of Turkey

Donate via PayPal

Additional information is available on the NEW Great Circle Mapper

Location
City:  Malatya, Malatya, Turkey
Name:Erhac
ICAO / IATA:LTAT / MLX

Details
Type:Airport (Aerodrome, Airfield)
Use:Public/Civil, Military
Latitude:38°26'07"N (38.435347)
Longitude:38°05'28"E (38.091006)
Datum:WGS 1984
Elevation:2828 ft (862 m)
Runways:1
Longest:10990 × 148 ft (3350 × 45 m)

Time
Timezone:UTC+3 (DST+5)
Local Time:

Weather
METAR:LTAT  041350Z 34004KT 300V040 9999 FEW040 BKN200 10/M03 Q1028 NOSIG RMK RWY03 35004KT 280V040
TAF:LTAT  (expired)

Related Locations
Nearby:
Farthest:RVV: 11373 mi / 18303 km
Raivavae, Tubuai Islands, Austral Islands, PF

Find:

   beyond  
but within

Other Information
Maps:
Sources:

  


 


Great Circle Mapper   Great Circle Mapper
Great Circle Mapper FAQ   Great Circle Mapper FAQ
  Karl's Home Page
KLSē   KLSē Home
   GC on Facebook
Airlines of the World   Airlines of the World
Donate via PayPal


Copyright © 2004-2019, Karl L. Swartz. All rights reserved.
All trademarks mentioned herein belong to their respective owners.

Please see credits for attribution and copyright information.

Karl Swartz <karl@kls2.com>
  Powered by FreeBSD
Valid HTML 4.01!
Labeled with ICRA
hCard Microformat
Geo Microformat